createdAt,value
2022-08-26T00:01:56.935Z,36.04
2022-08-26T00:04:59.117Z,35.97
2022-08-26T00:08:01.069Z,35.88
2022-08-26T00:11:03.430Z,35.55
2022-08-26T00:14:05.460Z,35.61
2022-08-26T00:17:08.728Z,35.30
2022-08-26T00:20:14.206Z,35.31
2022-08-26T00:23:16.219Z,35.34
2022-08-26T00:26:18.679Z,35.06
2022-08-26T00:29:22.876Z,35.43
2022-08-26T00:32:24.812Z,35.44
2022-08-26T00:35:29.260Z,35.50
2022-08-26T00:38:38.336Z,34.94
2022-08-26T00:41:41.708Z,35.27
2022-08-26T00:44:43.721Z,35.37
2022-08-26T00:48:01.327Z,35.41
2022-08-26T00:51:16.472Z,35.23
2022-08-26T00:54:23.110Z,35.35
2022-08-26T00:57:25.599Z,35.45
2022-08-26T01:00:30.256Z,35.69
2022-08-26T01:03:34.810Z,35.22
2022-08-26T01:06:36.951Z,35.40
2022-08-26T01:09:39.782Z,35.18
2022-08-26T01:12:57.958Z,35.33
2022-08-26T01:16:04.402Z,35.38
2022-08-26T01:19:21.653Z,35.01
2022-08-26T01:22:30.141Z,34.97
2022-08-26T01:25:37.114Z,35.10
2022-08-26T01:28:41.987Z,35.42
2022-08-26T01:31:47.414Z,35.65
2022-08-26T01:34:49.744Z,35.34
2022-08-26T01:37:53.973Z,35.44
2022-08-26T01:40:56.341Z,35.16
2022-08-26T01:44:00.872Z,35.46
2022-08-26T01:47:05.165Z,35.41
2022-08-26T01:50:27.521Z,35.48
2022-08-26T01:53:31.151Z,35.31
2022-08-26T01:56:36.576Z,35.39
2022-08-26T01:59:38.713Z,35.57
2022-08-26T02:02:46.678Z,35.33
2022-08-26T02:06:00.962Z,35.27
2022-08-26T02:09:05.329Z,35.07
2022-08-26T02:12:08.790Z,35.21
2022-08-26T02:15:12.981Z,35.27
2022-08-26T02:18:15.027Z,35.37
2022-08-26T02:21:18.059Z,35.22
2022-08-26T02:24:22.221Z,35.51
2022-08-26T02:27:32.214Z,35.31
2022-08-26T02:30:34.683Z,35.60
2022-08-26T02:33:37.853Z,35.53
2022-08-26T02:36:45.275Z,35.57
2022-08-26T02:39:47.288Z,35.94
2022-08-26T02:42:50.333Z,36.04
2022-08-26T02:45:55.286Z,35.97
2022-08-26T02:48:58.400Z,36.00
2022-08-26T02:52:01.871Z,35.87
2022-08-26T02:55:06.179Z,36.02
2022-08-26T02:58:08.513Z,36.12
2022-08-26T03:01:19.681Z,36.13
2022-08-26T03:04:22.037Z,36.26
2022-08-26T03:07:28.065Z,36.20
2022-08-26T03:10:32.286Z,36.06
2022-08-26T03:13:36.349Z,35.93
2022-08-26T03:16:38.369Z,36.02
2022-08-26T03:19:40.222Z,36.33
2022-08-26T03:22:43.230Z,35.90
2022-08-26T03:25:50.399Z,36.16
2022-08-26T03:29:11.112Z,36.11
2022-08-26T03:32:13.158Z,36.22
2022-08-26T03:35:15.104Z,36.11
2022-08-26T03:38:17.056Z,36.11
2022-08-26T03:41:19.041Z,36.07
2022-08-26T03:44:21.282Z,36.15
2022-08-26T03:47:23.518Z,36.23
2022-08-26T03:50:26.766Z,35.67
2022-08-26T03:53:28.883Z,36.02
2022-08-26T03:56:33.479Z,35.82
2022-08-26T03:59:35.437Z,35.66
2022-08-26T04:02:38.993Z,35.56
2022-08-26T04:05:40.911Z,35.60
2022-08-26T04:08:43.297Z,35.37
2022-08-26T04:11:46.234Z,35.73
2022-08-26T04:14:53.166Z,35.58
2022-08-26T04:17:57.362Z,35.02
2022-08-26T04:20:59.504Z,35.41
2022-08-26T04:24:03.559Z,34.99
2022-08-26T04:27:10.515Z,35.30
2022-08-26T04:30:13.239Z,35.30
2022-08-26T04:33:15.800Z,35.16
2022-08-26T04:36:20.096Z,35.05
2022-08-26T04:39:22.385Z,34.67
2022-08-26T04:42:25.902Z,35.09
2022-08-26T04:45:28.652Z,34.92
2022-08-26T04:48:32.053Z,34.96
2022-08-26T04:51:35.996Z,35.31
2022-08-26T04:54:38.947Z,34.95
2022-08-26T04:57:43.919Z,34.95
2022-08-26T05:00:49.961Z,35.20
2022-08-26T05:03:52.648Z,35.14
2022-08-26T05:06:57.896Z,34.89
2022-08-26T05:10:05.337Z,34.69
2022-08-26T05:13:16.059Z,34.67
2022-08-26T05:16:19.040Z,34.67
2022-08-26T05:19:22.413Z,34.20
2022-08-26T05:22:25.169Z,34.29
2022-08-26T05:25:28.841Z,33.99
2022-08-26T05:28:32.034Z,33.34
2022-08-26T05:31:35.102Z,32.90
2022-08-26T05:34:37.594Z,32.99
2022-08-26T05:37:40.225Z,32.69
2022-08-26T05:40:45.322Z,32.56
2022-08-26T05:43:47.467Z,32.65
2022-08-26T05:46:51.791Z,32.58
2022-08-26T05:49:55.520Z,32.32
2022-08-26T05:52:59.209Z,32.28
2022-08-26T05:56:01.293Z,32.55
2022-08-26T05:59:03.719Z,32.43
2022-08-26T06:02:07.216Z,32.31
2022-08-26T06:05:09.833Z,32.17
2022-08-26T06:08:13.639Z,32.11
2022-08-26T06:11:18.883Z,32.62
2022-08-26T06:14:20.891Z,31.97
2022-08-26T06:17:22.841Z,30.96
2022-08-26T06:20:25.484Z,29.66
2022-08-26T06:23:48.284Z,29.03
2022-08-26T06:26:53.559Z,28.97
2022-08-26T06:29:55.469Z,29.42
2022-08-26T06:32:57.417Z,29.09
2022-08-26T06:36:01.220Z,28.72
2022-08-26T06:39:07.622Z,29.02
2022-08-26T06:42:11.015Z,29.25
2022-08-26T06:45:14.658Z,28.89
2022-08-26T06:48:19.570Z,29.43
2022-08-26T06:51:30.372Z,29.33
2022-08-26T06:54:32.479Z,29.64
2022-08-26T06:57:37.715Z,29.86
2022-08-26T07:00:47.519Z,29.46
2022-08-26T07:03:54.767Z,29.89
2022-08-26T07:06:59.281Z,29.34
2022-08-26T07:10:02.050Z,29.18
2022-08-26T07:13:04.120Z,29.40
2022-08-26T07:16:12.571Z,29.54
2022-08-26T07:19:17.453Z,27.95
2022-08-26T07:22:30.541Z,27.90
2022-08-26T07:25:32.297Z,27.39
2022-08-26T07:28:34.762Z,26.51
2022-08-26T07:31:42.423Z,27.04
2022-08-26T07:34:45.745Z,27.03
2022-08-26T07:37:47.707Z,27.07
2022-08-26T07:40:50.811Z,27.29
2022-08-26T07:43:54.223Z,27.60
2022-08-26T07:46:57.289Z,27.02
2022-08-26T07:49:59.391Z,26.92
2022-08-26T07:53:03.570Z,26.49
2022-08-26T07:56:06.595Z,25.16
2022-08-26T07:59:14.075Z,24.55
2022-08-26T08:02:17.168Z,24.62
2022-08-26T08:05:21.556Z,24.45
2022-08-26T08:08:27.800Z,24.64
2022-08-26T08:11:31.412Z,24.01
2022-08-26T08:14:34.731Z,23.96
2022-08-26T08:17:37.170Z,23.37
2022-08-26T08:20:40.572Z,23.76
2022-08-26T08:23:46.997Z,23.50
2022-08-26T08:26:49.504Z,23.72
2022-08-26T08:29:56.981Z,22.43
2022-08-26T08:32:59.076Z,22.10
2022-08-26T08:36:02.392Z,21.63
2022-08-26T08:39:04.987Z,21.56
2022-08-26T08:42:28.664Z,20.85
2022-08-26T08:45:44.775Z,20.47
2022-08-26T08:48:56.976Z,20.11
2022-08-26T08:52:06.997Z,19.69
2022-08-26T08:55:10.988Z,19.11
2022-08-26T08:58:19.667Z,19.88
2022-08-26T09:01:25.712Z,19.02
2022-08-26T09:04:39.640Z,19.31
2022-08-26T09:07:54.255Z,18.64
2022-08-26T09:11:00.502Z,18.90
2022-08-26T09:14:03.060Z,18.23
2022-08-26T09:17:24.076Z,19.41
2022-08-26T09:20:53.901Z,18.79
2022-08-26T09:23:56.965Z,19.17
2022-08-26T09:26:59.445Z,17.90
2022-08-26T09:30:01.378Z,18.35
2022-08-26T09:33:10.187Z,17.79
2022-08-26T09:36:41.019Z,18.62
2022-08-26T09:39:43.512Z,19.00
2022-08-26T09:42:46.477Z,18.78
2022-08-26T09:46:09.696Z,18.17
2022-08-26T09:49:36.081Z,19.09
2022-08-26T09:52:40.385Z,17.57
2022-08-26T09:55:47.772Z,17.59
2022-08-26T09:58:51.821Z,17.27
2022-08-26T10:01:55.067Z,17.61
2022-08-26T10:05:09.013Z,17.76
2022-08-26T10:08:20.953Z,17.75
2022-08-26T10:11:43.188Z,18.14
2022-08-26T10:14:57.892Z,18.16
2022-08-26T10:18:11.285Z,17.66
2022-08-26T10:21:20.888Z,17.56
2022-08-26T10:24:31.621Z,17.46
2022-08-26T10:27:55.064Z,17.77
2022-08-26T10:31:28.256Z,17.79
2022-08-26T10:34:32.585Z,17.50
2022-08-26T10:37:51.020Z,17.26
2022-08-26T10:41:09.700Z,17.43
2022-08-26T10:44:15.249Z,17.44
2022-08-26T10:47:29.184Z,17.24
2022-08-26T10:50:41.536Z,17.25
2022-08-26T10:54:03.263Z,16.96
2022-08-26T10:57:12.597Z,17.50
2022-08-26T11:00:39.812Z,16.75
2022-08-26T11:03:57.916Z,16.96
2022-08-26T11:07:32.768Z,17.36
2022-08-26T11:10:43.563Z,17.42
2022-08-26T11:13:58.018Z,17.77
2022-08-26T11:17:04.413Z,17.60
2022-08-26T11:20:13.481Z,17.38
2022-08-26T11:23:28.447Z,17.08
2022-08-26T11:26:56.346Z,16.08
2022-08-26T11:30:05.026Z,15.89
2022-08-26T11:33:08.268Z,15.64
2022-08-26T11:36:28.214Z,15.75
2022-08-26T11:39:53.878Z,15.50
2022-08-26T11:43:06.848Z,16.43
2022-08-26T11:46:11.769Z,16.45
2022-08-26T11:49:15.282Z,15.79
2022-08-26T11:52:22.404Z,16.17
2022-08-26T11:55:24.371Z,16.45
2022-08-26T11:58:27.984Z,16.30
2022-08-26T12:01:36.301Z,16.14
2022-08-26T12:04:42.055Z,16.86
2022-08-26T12:07:53.645Z,16.67
2022-08-26T12:11:14.176Z,16.22
2022-08-26T12:14:25.169Z,16.30
2022-08-26T12:17:29.473Z,16.39
2022-08-26T12:20:46.587Z,16.24
2022-08-26T12:23:51.659Z,17.01
2022-08-26T12:27:12.008Z,17.07
2022-08-26T12:30:21.259Z,17.18
2022-08-26T12:33:23.550Z,17.31
2022-08-26T12:36:31.706Z,17.20
2022-08-26T12:39:36.873Z,17.64
2022-08-26T12:42:42.572Z,17.52
2022-08-26T12:45:57.811Z,18.78
2022-08-26T12:49:04.118Z,18.49
2022-08-26T12:52:08.330Z,18.34
2022-08-26T12:55:33.505Z,18.74
2022-08-26T12:58:39.066Z,18.28
2022-08-26T13:01:43.830Z,18.82
2022-08-26T13:04:46.351Z,19.24
2022-08-26T13:08:11.903Z,19.17
2022-08-26T13:11:21.632Z,19.22
2022-08-26T13:14:29.315Z,19.40
2022-08-26T13:17:32.846Z,19.44
2022-08-26T13:20:35.567Z,19.57
2022-08-26T13:23:42.350Z,20.05
2022-08-26T13:26:46.891Z,19.70
2022-08-26T13:29:49.789Z,20.11
2022-08-26T13:32:58.114Z,20.49
2022-08-26T13:36:00.481Z,20.69
2022-08-26T13:39:02.615Z,19.87
2022-08-26T13:42:04.665Z,20.22
2022-08-26T13:45:07.171Z,20.34
2022-08-26T13:48:10.003Z,20.53
2022-08-26T13:51:12.745Z,20.82
2022-08-26T13:54:14.760Z,20.65
2022-08-26T13:57:16.899Z,21.73
2022-08-26T14:00:19.815Z,24.54
2022-08-26T14:03:22.464Z,27.56
2022-08-26T14:06:25.517Z,29.24
2022-08-26T14:09:27.662Z,29.93
2022-08-26T14:12:29.855Z,28.63
2022-08-26T14:15:37.939Z,30.72
2022-08-26T14:18:46.197Z,30.36
2022-08-26T14:21:50.728Z,31.23
2022-08-26T14:24:53.065Z,30.45
2022-08-26T14:27:55.633Z,30.05
2022-08-26T14:30:59.407Z,30.90
2022-08-26T14:34:04.983Z,30.33
2022-08-26T14:37:08.213Z,29.47
2022-08-26T14:40:12.180Z,29.82
2022-08-26T14:43:15.918Z,29.19
2022-08-26T14:46:20.850Z,28.77
2022-08-26T14:49:24.509Z,28.50
2022-08-26T14:52:29.703Z,27.81
2022-08-26T14:55:35.802Z,28.02
2022-08-26T14:58:37.776Z,27.84
2022-08-26T15:01:40.050Z,27.71
2022-08-26T15:04:42.174Z,27.72
2022-08-26T15:07:45.658Z,27.31
2022-08-26T15:10:47.626Z,27.36
2022-08-26T15:13:49.590Z,27.67
2022-08-26T15:16:54.652Z,27.84
2022-08-26T15:19:56.893Z,28.15
2022-08-26T15:23:03.311Z,28.43
2022-08-26T15:26:10.699Z,28.19
2022-08-26T15:29:13.534Z,27.92
2022-08-26T15:32:15.622Z,27.46
2022-08-26T15:35:18.942Z,27.96
2022-08-26T15:38:20.902Z,27.66
2022-08-26T15:41:23.292Z,27.36
2022-08-26T15:44:26.018Z,27.85
2022-08-26T15:47:28.134Z,27.49
2022-08-26T15:50:30.726Z,27.79
2022-08-26T15:53:34.854Z,27.70
2022-08-26T15:56:38.674Z,27.32
2022-08-26T15:59:40.758Z,27.22
2022-08-26T16:02:43.837Z,27.26
2022-08-26T16:05:46.963Z,28.28
2022-08-26T16:08:50.209Z,27.59
2022-08-26T16:11:52.270Z,27.44
2022-08-26T16:14:54.272Z,27.24
2022-08-26T16:17:58.985Z,27.17
2022-08-26T16:21:13.537Z,27.22
2022-08-26T16:24:16.770Z,27.02
2022-08-26T16:27:18.870Z,26.76
2022-08-26T16:30:25.222Z,27.21
2022-08-26T16:33:29.519Z,27.54
2022-08-26T16:36:32.337Z,27.65
2022-08-26T16:39:34.388Z,27.84
2022-08-26T16:42:42.641Z,27.61
2022-08-26T16:45:44.534Z,27.63
2022-08-26T16:48:46.582Z,27.32
2022-08-26T16:51:48.465Z,27.63
2022-08-26T16:54:50.462Z,27.71
2022-08-26T16:57:53.039Z,27.80
2022-08-26T17:00:57.094Z,27.82
2022-08-26T17:03:59.130Z,28.02
2022-08-26T17:07:01.165Z,27.98
2022-08-26T17:10:04.681Z,28.28
2022-08-26T17:13:06.745Z,28.21
2022-08-26T17:16:11.088Z,28.24
2022-08-26T17:19:13.177Z,28.15
2022-08-26T17:22:15.808Z,28.40
2022-08-26T17:25:30.263Z,28.43
2022-08-26T17:28:32.473Z,28.20
2022-08-26T17:31:35.065Z,28.31
2022-08-26T17:34:37.093Z,28.38
2022-08-26T17:37:39.316Z,28.42
2022-08-26T17:40:41.688Z,28.64
2022-08-26T17:43:43.776Z,28.40
2022-08-26T17:46:45.691Z,28.53
2022-08-26T17:49:50.005Z,28.47
2022-08-26T17:52:52.166Z,28.47
2022-08-26T17:55:54.095Z,28.63
2022-08-26T17:59:04.055Z,28.96
2022-08-26T18:02:07.648Z,29.16
2022-08-26T18:05:12.270Z,29.46
2022-08-26T18:08:16.536Z,29.54
2022-08-26T18:11:21.255Z,29.28
2022-08-26T18:14:25.372Z,28.60
2022-08-26T18:17:27.507Z,28.51
2022-08-26T18:20:29.411Z,28.71
2022-08-26T18:23:34.032Z,29.85
2022-08-26T18:26:40.692Z,30.77
2022-08-26T18:29:47.412Z,31.50
2022-08-26T18:32:50.818Z,31.62
2022-08-26T18:35:54.494Z,30.99
2022-08-26T18:38:57.978Z,31.12
2022-08-26T18:42:03.157Z,30.89
2022-08-26T18:45:06.790Z,30.93
2022-08-26T18:48:15.182Z,30.87
2022-08-26T18:51:20.792Z,30.71
2022-08-26T18:54:23.306Z,30.44
2022-08-26T18:57:26.425Z,30.33
2022-08-26T19:00:28.388Z,30.50
2022-08-26T19:03:31.242Z,29.40
2022-08-26T19:06:39.608Z,30.18
2022-08-26T19:09:43.944Z,29.42
2022-08-26T19:12:51.944Z,29.67
2022-08-26T19:15:55.890Z,30.11
2022-08-26T19:18:59.143Z,30.20
2022-08-26T19:22:01.532Z,30.42
2022-08-26T19:25:04.336Z,29.88
2022-08-26T19:28:06.521Z,28.09
2022-08-26T19:31:13.765Z,29.30
2022-08-26T19:34:21.678Z,29.91
2022-08-26T19:37:27.234Z,29.99
2022-08-26T19:40:32.542Z,30.07
2022-08-26T19:43:35.224Z,29.81
2022-08-26T19:49:47.862Z,30.35
2022-08-26T19:52:50.859Z,29.50
2022-08-26T19:55:52.855Z,30.27
2022-08-26T19:58:55.131Z,29.87
2022-08-26T20:02:01.446Z,29.81
2022-08-26T20:05:06.035Z,29.88
2022-08-26T20:08:08.144Z,30.25
2022-08-26T20:11:19.501Z,30.13
2022-08-26T20:14:23.179Z,30.22
2022-08-26T20:17:25.343Z,29.49
2022-08-26T20:20:45.717Z,29.38
2022-08-26T20:23:48.113Z,29.76
2022-08-26T20:26:51.575Z,30.12
2022-08-26T20:29:55.725Z,30.87
2022-08-26T20:32:57.670Z,30.98
2022-08-26T20:35:59.735Z,31.02
2022-08-26T20:39:01.708Z,30.60
2022-08-26T20:42:06.969Z,30.91
2022-08-26T20:45:26.134Z,30.65
2022-08-26T20:48:28.308Z,30.75
2022-08-26T20:51:30.361Z,30.76
2022-08-26T20:54:32.373Z,30.60
2022-08-26T20:57:34.776Z,30.53
2022-08-26T21:00:38.449Z,30.62
2022-08-26T21:03:41.006Z,30.59
2022-08-26T21:06:47.264Z,30.68
2022-08-26T21:09:55.078Z,31.11
2022-08-26T21:12:58.006Z,30.74
2022-08-26T21:16:00.073Z,31.21
2022-08-26T21:19:02.428Z,31.51
2022-08-26T21:22:05.686Z,31.25
2022-08-26T21:25:08.410Z,31.66
2022-08-26T21:28:12.961Z,31.76
2022-08-26T21:31:19.952Z,31.54
2022-08-26T21:34:22.116Z,31.77
2022-08-26T21:37:24.480Z,31.72
2022-08-26T21:40:27.809Z,32.11
2022-08-26T21:43:35.008Z,31.96
2022-08-26T21:46:41.905Z,31.97
2022-08-26T21:49:44.301Z,31.98
2022-08-26T21:52:46.376Z,32.17
2022-08-26T21:55:50.263Z,32.43
2022-08-26T21:58:55.158Z,32.10
2022-08-26T22:01:58.090Z,32.09
2022-08-26T22:05:00.112Z,32.31
2022-08-26T22:08:02.077Z,32.06
2022-08-26T22:11:04.948Z,32.07
2022-08-26T22:14:07.278Z,32.39
2022-08-26T22:17:09.544Z,32.45
2022-08-26T22:20:16.640Z,32.37
2022-08-26T22:23:20.515Z,32.62
2022-08-26T22:26:25.782Z,32.32
2022-08-26T22:29:28.107Z,32.44
2022-08-26T22:32:30.010Z,32.35
2022-08-26T22:35:31.999Z,31.97
2022-08-26T22:38:34.592Z,31.86
2022-08-26T22:41:36.753Z,32.42
2022-08-26T22:44:39.060Z,32.17
2022-08-26T22:47:41.655Z,32.45
2022-08-26T22:50:45.957Z,32.24
2022-08-26T22:53:48.009Z,32.41
2022-08-26T22:56:50.147Z,32.56
2022-08-26T22:59:52.103Z,32.43
2022-08-26T23:02:54.117Z,32.49
2022-08-26T23:05:56.242Z,32.70
2022-08-26T23:08:58.314Z,32.76
2022-08-26T23:12:00.462Z,33.00
2022-08-26T23:15:02.496Z,32.89
2022-08-26T23:18:05.266Z,32.78
2022-08-26T23:21:07.376Z,33.12
2022-08-26T23:24:10.134Z,33.15
2022-08-26T23:27:12.207Z,33.10
2022-08-26T23:30:21.712Z,32.95
2022-08-26T23:33:24.016Z,33.21
2022-08-26T23:36:26.198Z,33.13
2022-08-26T23:39:28.984Z,33.15
2022-08-26T23:42:31.020Z,33.11
2022-08-26T23:45:33.108Z,33.19
2022-08-26T23:48:35.158Z,33.09
2022-08-26T23:51:57.362Z,33.23
2022-08-26T23:54:59.524Z,33.59
2022-08-26T23:58:01.672Z,33.50
